Time;durP1;ratioP1;P1;durP2;ratioP2;P2;SDS_P1;SDS_P2;PMS_P1;PMS_P2;Temp;Humidity;BMP_temperature;BMP_pressure;BME280_temperature;BME280_humidity;BME280_pressure;Samples;Min_cycle;Max_cycle;Signal;HPM_P1;HPM_P2
2022/08/06 00:01:40;;;;;;;0.30;0.30;;;19.90;1.00;;;;;;5040533;28;20633;-76
2022/08/06 00:04:06;;;;;;;0.40;0.40;;;19.80;1.00;;;;;;5037815;28;20202;-77
2022/08/06 00:06:31;;;;;;;0.30;0.30;;;19.80;1.00;;;;;;5046714;28;20207;-78
2022/08/06 00:08:57;;;;;;;0.30;0.30;;;19.80;1.00;;;;;;5036457;28;20178;-77
2022/08/06 00:11:22;;;;;;;0.40;0.40;;;19.80;1.00;;;;;;5052156;28;20187;-77
2022/08/06 00:13:48;;;;;;;0.40;0.40;;;19.90;1.00;;;;;;5051915;28;20261;-78
2022/08/06 00:16:14;;;;;;;0.30;0.30;;;19.80;99.90;;;;;;5036450;28;20239;-77
2022/08/06 00:18:39;;;;;;;0.33;0.33;;;19.80;99.90;;;;;;5032735;28;20184;-77
2022/08/06 00:21:05;;;;;;;0.40;0.40;;;19.80;99.90;;;;;;5036681;28;20329;-77
2022/08/06 00:23:30;;;;;;;0.40;0.40;;;19.80;99.90;;;;;;5043423;28;20195;-77
2022/08/06 00:25:56;;;;;;;0.40;0.40;;;19.80;99.90;;;;;;5036527;28;20199;-77
2022/08/06 00:28:24;;;;;;;0.30;0.30;;;19.80;99.90;;;;;;5048308;28;20671;-77
2022/08/06 00:30:49;;;;;;;0.30;0.30;;;19.80;99.90;;;;;;5051086;28;20191;-77
2022/08/06 00:33:15;;;;;;;0.47;0.47;;;19.80;99.90;;;;;;5041117;28;20583;-77
2022/08/06 00:35:40;;;;;;;0.30;0.30;;;19.70;99.90;;;;;;5043152;28;20541;-77
2022/08/06 00:38:06;;;;;;;0.40;0.40;;;19.80;99.90;;;;;;5035716;28;20624;-77
2022/08/06 00:40:32;;;;;;;0.40;0.40;;;19.80;99.90;;;;;;5046341;28;20178;-77
2022/08/06 00:42:59;;;;;;;0.30;0.30;;;19.80;99.90;;;;;;5046637;28;20206;-77
2022/08/06 00:45:25;;;;;;;0.27;0.27;;;19.90;99.90;;;;;;5042258;28;20208;-77
2022/08/06 00:47:54;;;;;;;0.37;0.37;;;19.80;99.90;;;;;;5031865;28;20237;-77
2022/08/06 00:50:19;;;;;;;0.40;0.40;;;19.70;1.00;;;;;;5033519;28;20234;-77
2022/08/06 00:52:45;;;;;;;0.40;0.40;;;19.60;1.00;;;;;;5050810;28;20195;-77
2022/08/06 00:55:12;;;;;;;0.37;0.37;;;19.70;1.00;;;;;;5041211;28;20171;-77
2022/08/06 00:57:37;;;;;;;0.40;0.40;;;19.60;1.00;;;;;;5042995;28;20189;-76
2022/08/06 01:00:04;;;;;;;0.40;0.40;;;19.60;1.00;;;;;;5031204;28;20258;-77
2022/08/06 01:02:30;;;;;;;0.30;0.30;;;19.50;1.00;;;;;;5034261;28;20256;-77
2022/08/06 01:04:55;;;;;;;0.40;0.40;;;19.50;99.90;;;;;;5049658;28;20301;-77
2022/08/06 01:07:21;;;;;;;0.40;0.40;;;19.60;99.90;;;;;;5050891;28;20194;-77
2022/08/06 01:09:46;;;;;;;0.40;0.40;;;19.50;99.90;;;;;;5035583;28;20184;-77
2022/08/06 01:12:12;;;;;;;0.30;0.30;;;19.40;99.90;;;;;;5037370;28;20290;-76
2022/08/06 01:14:37;;;;;;;0.27;0.27;;;19.50;99.90;;;;;;5043216;28;20184;-77
2022/08/06 01:17:08;;;;;;;0.40;0.40;;;19.50;99.90;;;;;;5034798;28;20302;-77
2022/08/06 01:20:06;;;;;;;0.57;0.57;;;19.50;1.00;;;;;;5031541;28;20191;-77
2022/08/06 01:22:58;;;;;;;0.30;0.30;;;19.50;1.00;;;;;;5051147;28;20190;-77
2022/08/06 01:26:01;;;;;;;0.30;0.30;;;19.50;1.00;;;;;;5049751;28;20206;-77
2022/08/06 01:28:35;;;;;;;0.30;0.30;;;19.50;1.00;;;;;;5050576;28;20214;-77
2022/08/06 01:31:17;;;;;;;0.30;0.30;;;19.50;1.00;;;;;;5036938;28;20173;-76
2022/08/06 01:33:51;;;;;;;0.40;0.40;;;19.50;1.00;;;;;;5040120;28;20214;-77
2022/08/06 01:36:27;;;;;;;0.40;0.40;;;19.40;1.00;;;;;;5039045;28;20730;-77
2022/08/06 01:38:56;;;;;;;0.40;0.40;;;19.40;1.00;;;;;;5050458;28;20194;-77
2022/08/06 01:41:42;;;;;;;0.33;0.33;;;19.50;1.00;;;;;;5032640;28;20226;-76
2022/08/06 01:44:14;;;;;;;0.40;0.40;;;19.40;1.00;;;;;;5039458;28;20226;-77
2022/08/06 01:46:43;;;;;;;0.33;0.33;;;19.40;1.00;;;;;;5038717;28;20578;-77
2022/08/06 01:49:10;;;;;;;0.30;0.30;;;19.40;1.00;;;;;;5031129;28;20172;-76
2022/08/06 01:51:38;;;;;;;0.40;0.40;;;19.30;1.00;;;;;;5047241;28;20187;-77
2022/08/06 01:54:07;;;;;;;0.40;0.40;;;19.20;1.00;;;;;;5037153;28;20202;-77
2022/08/06 01:56:36;;;;;;;0.30;0.30;;;19.20;1.00;;;;;;5040529;28;20595;-77
2022/08/06 01:59:04;;;;;;;0.50;0.50;;;19.20;1.00;;;;;;5049226;28;20175;-77
2022/08/06 02:01:32;;;;;;;0.30;0.30;;;19.20;1.00;;;;;;5054621;28;20175;-77
2022/08/06 02:04:00;;;;;;;0.30;0.30;;;19.20;1.00;;;;;;5044820;28;20204;-76
2022/08/06 02:06:33;;;;;;;0.30;0.30;;;19.20;1.00;;;;;;5038118;28;20676;-77
2022/08/06 02:09:03;;;;;;;0.40;0.40;;;19.10;1.00;;;;;;5047592;28;20189;-78
2022/08/06 02:11:32;;;;;;;0.30;0.30;;;19.20;1.00;;;;;;5047102;28;20178;-77
2022/08/06 02:13:59;;;;;;;0.30;0.30;;;19.10;1.00;;;;;;5043519;28;20205;-77
2022/08/06 02:16:30;;;;;;;0.40;0.40;;;19.10;1.00;;;;;;5042538;28;20172;-77
2022/08/06 02:18:57;;;;;;;0.40;0.40;;;19.20;1.00;;;;;;5034268;28;20545;-77
2022/08/06 02:21:24;;;;;;;0.30;0.30;;;19.10;1.00;;;;;;5039523;28;20176;-77
2022/08/06 02:23:51;;;;;;;0.40;0.40;;;19.00;1.00;;;;;;5037012;28;20274;-77
2022/08/06 02:26:18;;;;;;;0.40;0.40;;;19.00;1.00;;;;;;5037881;28;20228;-77
2022/08/06 02:28:46;;;;;;;0.30;0.30;;;19.10;1.00;;;;;;5053421;28;20538;-77
2022/08/06 02:31:12;;;;;;;0.33;0.33;;;19.00;1.00;;;;;;5042703;28;20585;-77
2022/08/06 02:33:38;;;;;;;0.40;0.40;;;18.90;1.00;;;;;;5042640;28;20285;-77
2022/08/06 02:36:19;;;;;;;0.37;0.37;;;19.00;1.00;;;;;;5034537;28;20672;-77
2022/08/06 02:38:53;;;;;;;0.30;0.30;;;19.00;1.00;;;;;;5034276;28;20199;-77
2022/08/06 02:41:32;;;;;;;0.33;0.33;;;18.90;1.00;;;;;;5034840;28;20180;-77
2022/08/06 02:44:22;;;;;;;0.30;0.30;;;18.90;1.00;;;;;;5049984;28;20547;-77
2022/08/06 02:47:01;;;;;;;0.40;0.40;;;18.90;1.00;;;;;;5051695;28;20222;-77
2022/08/06 02:49:31;;;;;;;0.40;0.40;;;18.80;1.00;;;;;;5041304;28;20576;-77
2022/08/06 02:52:04;;;;;;;0.37;0.37;;;18.80;1.00;;;;;;5042444;28;20184;-77
2022/08/06 02:54:38;;;;;;;0.40;0.40;;;18.80;1.00;;;;;;5047450;28;20324;-77
2022/08/06 02:57:07;;;;;;;0.33;0.33;;;18.80;1.00;;;;;;5037890;28;20525;-77
2022/08/06 02:59:38;;;;;;;0.43;0.43;;;18.80;1.00;;;;;;5045273;28;20183;-77
2022/08/06 03:02:07;;;;;;;0.33;0.33;;;18.80;1.00;;;;;;5038803;28;20537;-77
2022/08/06 03:04:34;;;;;;;0.47;0.47;;;18.70;1.00;;;;;;5033835;28;20625;-77
2022/08/06 03:07:05;;;;;;;0.30;0.30;;;18.80;1.00;;;;;;5033783;28;20215;-77
2022/08/06 03:09:31;;;;;;;0.40;0.40;;;18.80;1.00;;;;;;5039757;28;20168;-77
2022/08/06 03:11:58;;;;;;;0.40;0.40;;;18.80;1.00;;;;;;5037051;28;20617;-77
2022/08/06 03:14:24;;;;;;;0.30;0.30;;;18.80;1.00;;;;;;5045117;28;20644;-77
2022/08/06 03:16:51;;;;;;;0.40;0.40;;;18.70;1.00;;;;;;5033948;28;20222;-77
2022/08/06 03:19:19;;;;;;;0.30;0.30;;;18.80;1.00;;;;;;5035412;28;20188;-77
2022/08/06 03:21:46;;;;;;;0.40;0.40;;;18.80;1.00;;;;;;5054080;28;20270;-76
2022/08/06 03:24:13;;;;;;;0.30;0.30;;;18.70;1.00;;;;;;5037358;28;20188;-76
2022/08/06 03:26:40;;;;;;;0.30;0.30;;;18.70;1.00;;;;;;5035538;28;20299;-77
2022/08/06 03:29:06;;;;;;;0.50;0.50;;;18.70;1.00;;;;;;5033030;28;20683;-77
2022/08/06 03:31:33;;;;;;;0.30;0.30;;;18.60;1.00;;;;;;5049492;28;20171;-78
2022/08/06 03:33:59;;;;;;;0.40;0.40;;;18.60;1.00;;;;;;5053129;28;20195;-77
2022/08/06 03:36:26;;;;;;;0.50;0.50;;;18.60;1.00;;;;;;5053190;28;20254;-77
2022/08/06 03:39:00;;;;;;;0.40;0.40;;;18.60;1.00;;;;;;5052527;28;20281;-77
2022/08/06 03:41:27;;;;;;;0.30;0.30;;;18.60;1.00;;;;;;5039259;28;20176;-76
2022/08/06 03:43:53;;;;;;;0.40;0.40;;;18.60;1.00;;;;;;5050134;28;20203;-77
2022/08/06 03:46:37;;;;;;;0.40;0.40;;;18.50;1.00;;;;;;5048340;28;20199;-77
2022/08/06 03:49:07;;;;;;;0.40;0.40;;;18.50;1.00;;;;;;5050958;28;20191;-77
2022/08/06 03:51:36;;;;;;;0.40;0.40;;;18.40;1.00;;;;;;5033505;28;20179;-77
2022/08/06 03:54:03;;;;;;;0.30;0.30;;;18.40;1.00;;;;;;5035470;28;20208;-78
2022/08/06 03:56:29;;;;;;;0.40;0.40;;;18.30;1.00;;;;;;5032946;28;20262;-77
2022/08/06 03:59:03;;;;;;;0.30;0.30;;;18.40;1.00;;;;;;5039697;28;20184;-77
2022/08/06 04:01:33;;;;;;;0.40;0.40;;;18.30;1.00;;;;;;5049443;28;20683;-76
2022/08/06 04:04:00;;;;;;;0.47;0.47;;;18.20;1.00;;;;;;5036784;28;20218;-77
2022/08/06 04:06:26;;;;;;;0.40;0.40;;;18.10;1.00;;;;;;5032952;28;20243;-77
2022/08/06 04:08:52;;;;;;;0.40;0.40;;;18.10;1.00;;;;;;5045618;28;20626;-78
2022/08/06 04:11:18;;;;;;;0.40;0.40;;;18.10;1.00;;;;;;5035479;28;20226;-77
2022/08/06 04:13:44;;;;;;;0.50;0.50;;;18.10;1.00;;;;;;5042092;28;20668;-77
2022/08/06 04:16:12;;;;;;;0.40;0.40;;;18.10;85.30;;;;;;5040078;28;20233;-77
2022/08/06 04:18:39;;;;;;;0.40;0.40;;;18.00;99.90;;;;;;5052248;28;20179;-77
2022/08/06 04:21:15;;;;;;;0.30;0.30;;;17.90;99.90;;;;;;5051385;28;20186;-77
2022/08/06 04:23:41;;;;;;;0.40;0.40;;;17.90;99.90;;;;;;5050469;28;20195;-76
2022/08/06 04:26:08;;;;;;;0.40;0.40;;;17.80;99.90;;;;;;5051918;28;20245;-77
2022/08/06 04:28:38;;;;;;;0.40;0.40;;;17.80;99.90;;;;;;5051849;28;20320;-77
2022/08/06 04:31:04;;;;;;;0.37;0.37;;;17.90;99.90;;;;;;5039345;28;20179;-76
2022/08/06 04:33:33;;;;;;;0.40;0.40;;;17.80;99.90;;;;;;5034303;28;20260;-77
2022/08/06 04:36:04;;;;;;;0.40;0.40;;;17.90;99.90;;;;;;5032295;28;20183;-77
2022/08/06 04:38:31;;;;;;;0.50;0.50;;;18.00;99.90;;;;;;5039615;28;20666;-77
2022/08/06 04:40:58;;;;;;;0.40;0.40;;;18.00;99.90;;;;;;5040693;28;20314;-77
2022/08/06 04:43:24;;;;;;;0.40;0.40;;;18.00;99.90;;;;;;5046920;28;20202;-77
2022/08/06 04:45:50;;;;;;;0.30;0.30;;;18.10;99.90;;;;;;5035719;28;20207;-77
2022/08/06 04:48:17;;;;;;;0.40;0.40;;;18.20;99.90;;;;;;5037645;28;20175;-77
2022/08/06 04:50:42;;;;;;;0.43;0.43;;;18.30;99.90;;;;;;5044854;28;20640;-76
2022/08/06 04:53:14;;;;;;;0.30;0.30;;;18.30;99.90;;;;;;5043889;28;20207;-76
2022/08/06 04:55:41;;;;;;;0.40;0.40;;;18.30;99.90;;;;;;5043380;28;20262;-76
2022/08/06 04:58:08;;;;;;;0.50;0.50;;;18.30;84.00;;;;;;5039156;28;20176;-77
2022/08/06 05:00:37;;;;;;;0.50;0.50;;;18.30;87.30;;;;;;5041388;28;20179;-77
2022/08/06 05:03:02;;;;;;;0.33;0.33;;;18.30;97.70;;;;;;5040295;28;20191;-76
2022/08/06 05:05:33;;;;;;;0.40;0.40;;;18.40;74.60;;;;;;5038028;28;20310;-76
2022/08/06 05:08:01;;;;;;;0.37;0.37;;;18.20;99.90;;;;;;5040249;28;20261;-76
2022/08/06 05:10:34;;;;;;;0.40;0.40;;;18.20;99.90;;;;;;5040387;28;20660;-76
2022/08/06 05:13:01;;;;;;;0.30;0.30;;;18.20;99.90;;;;;;5038761;28;20290;-77
2022/08/06 05:15:34;;;;;;;0.37;0.37;;;18.20;99.90;;;;;;5034578;28;20377;-77
2022/08/06 05:18:25;;;;;;;0.40;0.40;;;18.30;99.90;;;;;;5047385;28;20175;-77
2022/08/06 05:20:54;;;;;;;0.37;0.37;;;18.20;99.90;;;;;;5040923;28;20710;-75
2022/08/06 05:23:36;;;;;;;0.40;0.40;;;18.20;99.90;;;;;;5045092;28;20198;-76
2022/08/06 05:26:02;;;;;;;0.40;0.40;;;18.30;99.90;;;;;;5038449;28;20207;-76
2022/08/06 05:28:27;;;;;;;0.47;0.47;;;18.30;99.90;;;;;;5036652;28;20672;-75
2022/08/06 05:30:53;;;;;;;0.40;0.40;;;18.40;99.90;;;;;;5040931;28;20183;-76
2022/08/06 05:33:27;;;;;;;0.40;0.40;;;18.40;99.90;;;;;;5051136;28;20671;-75
2022/08/06 05:35:53;;;;;;;0.40;0.40;;;18.60;99.90;;;;;;5042436;28;20211;-75
2022/08/06 05:38:19;;;;;;;0.40;0.40;;;18.80;99.90;;;;;;5050498;28;20188;-76
2022/08/06 05:40:45;;;;;;;0.40;0.40;;;18.80;57.90;;;;;;5045190;28;20183;-76
2022/08/06 05:43:10;;;;;;;0.40;0.40;;;18.80;1.00;;;;;;5045890;28;20223;-75
2022/08/06 05:45:39;;;;;;;0.30;0.30;;;18.80;25.80;;;;;;5051010;28;20222;-75
2022/08/06 05:48:05;;;;;;;0.47;0.47;;;18.80;6.70;;;;;;5049344;28;20198;-74
2022/08/06 05:50:35;;;;;;;0.40;0.40;;;18.80;91.80;;;;;;5048336;28;20203;-74
2022/08/06 05:53:07;;;;;;;0.30;0.30;;;19.10;99.90;;;;;;5043684;28;20617;-74
2022/08/06 05:55:48;;;;;;;0.40;0.40;;;19.10;53.80;;;;;;5054125;28;20179;-75
2022/08/06 05:58:19;;;;;;;0.40;0.40;;;19.10;1.00;;;;;;5037916;28;20185;-75
2022/08/06 06:00:45;;;;;;;0.30;0.30;;;19.10;1.00;;;;;;5036825;28;20183;-74
2022/08/06 06:03:15;;;;;;;0.30;0.30;;;19.30;68.00;;;;;;5044421;28;20191;-74
2022/08/06 06:05:42;;;;;;;0.40;0.40;;;19.40;50.40;;;;;;5054359;28;20211;-73
2022/08/06 06:08:08;;;;;;;0.30;0.30;;;19.30;33.00;;;;;;5052275;28;20179;-74
2022/08/06 06:10:37;;;;;;;0.50;0.50;;;19.30;36.90;;;;;;5043042;28;20703;-74
2022/08/06 06:13:04;;;;;;;0.30;0.30;;;19.50;13.00;;;;;;5053918;28;20233;-74
2022/08/06 06:15:34;;;;;;;0.40;0.40;;;19.40;1.00;;;;;;5034768;28;20183;-74
2022/08/06 06:18:12;;;;;;;0.40;0.40;;;19.50;1.00;;;;;;5034871;28;20184;-74
2022/08/06 06:21:10;;;;;;;0.33;0.33;;;19.60;1.00;;;;;;5049193;28;20178;-74
2022/08/06 06:23:54;;;;;;;0.30;0.30;;;19.70;1.00;;;;;;5043325;28;20203;-74
2022/08/06 06:26:43;;;;;;;0.30;0.30;;;19.70;1.00;;;;;;5046219;28;20218;-74
2022/08/06 06:29:45;;;;;;;0.40;0.40;;;19.60;1.00;;;;;;5038384;28;20191;-74
2022/08/06 06:32:44;;;;;;;0.40;0.40;;;19.90;1.00;;;;;;5040355;28;20265;-73
2022/08/06 06:35:22;;;;;;;0.33;0.33;;;19.80;1.00;;;;;;5045062;28;20229;-74
2022/08/06 06:37:56;;;;;;;0.30;0.30;;;19.90;1.00;;;;;;5052134;28;20652;-74
2022/08/06 06:40:25;;;;;;;0.30;0.30;;;20.10;1.00;;;;;;5038254;28;20190;-74
2022/08/06 06:43:09;;;;;;;0.30;0.30;;;20.20;1.00;;;;;;5044596;28;20206;-74
2022/08/06 06:45:47;;;;;;;0.30;0.30;;;20.40;1.00;;;;;;5045268;28;20211;-74
2022/08/06 06:48:32;;;;;;;0.30;0.30;;;20.40;1.00;;;;;;5044210;28;20207;-74
2022/08/06 06:51:06;;;;;;;0.30;0.30;;;20.40;1.00;;;;;;5045641;28;20260;-74
2022/08/06 06:53:37;;;;;;;0.30;0.30;;;20.10;1.00;;;;;;5045178;28;20203;-74
2022/08/06 06:56:04;;;;;;;0.40;0.40;;;20.10;1.00;;;;;;5040962;28;20180;-74
2022/08/06 06:59:02;;;;;;;0.43;0.43;;;20.40;1.00;;;;;;5037750;28;20175;-74
2022/08/06 07:01:33;;;;;;;0.40;0.40;;;20.60;1.00;;;;;;5052331;28;20312;-74
2022/08/06 07:04:02;;;;;;;0.30;0.30;;;20.70;1.00;;;;;;5046931;28;20288;-74
2022/08/06 07:06:29;;;;;;;0.40;0.40;;;20.50;1.00;;;;;;5041960;28;20207;-73
2022/08/06 07:08:56;;;;;;;0.30;0.30;;;20.60;1.00;;;;;;5036647;28;20179;-74
2022/08/06 07:11:24;;;;;;;0.30;0.30;;;20.40;1.00;;;;;;5048815;28;20187;-74
2022/08/06 07:13:51;;;;;;;0.30;0.30;;;20.70;1.00;;;;;;5051839;28;20207;-74
2022/08/06 07:16:22;;;;;;;0.30;0.30;;;21.00;1.00;;;;;;5037844;28;20195;-75
2022/08/06 07:18:50;;;;;;;0.30;0.30;;;20.90;1.00;;;;;;5035609;28;20267;-75
2022/08/06 07:21:18;;;;;;;0.30;0.30;;;20.90;1.00;;;;;;5047872;28;20183;-76
2022/08/06 07:23:46;;;;;;;0.40;0.40;;;21.20;1.00;;;;;;5047205;28;20676;-75
2022/08/06 07:26:14;;;;;;;0.30;0.30;;;21.10;1.00;;;;;;5052972;28;20264;-75
2022/08/06 07:28:42;;;;;;;0.30;0.30;;;21.40;1.00;;;;;;5047599;28;20187;-75
2022/08/06 07:31:08;;;;;;;0.30;0.30;;;21.50;1.00;;;;;;5036134;28;20186;-75
2022/08/06 07:33:36;;;;;;;0.30;0.30;;;21.90;1.00;;;;;;5048660;28;20207;-76
2022/08/06 07:36:02;;;;;;;0.30;0.30;;;22.20;1.00;;;;;;5033333;28;20265;-76
2022/08/06 07:38:31;;;;;;;0.30;0.30;;;22.40;1.00;;;;;;5038575;28;20672;-75
2022/08/06 07:41:01;;;;;;;0.30;0.30;;;22.30;1.00;;;;;;5051615;28;20180;-75
2022/08/06 07:43:34;;;;;;;0.30;0.30;;;22.20;1.00;;;;;;5033995;28;20210;-76
2022/08/06 07:46:04;;;;;;;0.40;0.40;;;22.40;1.00;;;;;;5034296;28;20294;-75
2022/08/06 07:48:37;;;;;;;0.40;0.40;;;22.30;1.00;;;;;;5039126;28;20636;-75
2022/08/06 07:51:04;;;;;;;0.47;0.47;;;21.80;1.00;;;;;;5038709;28;20179;-76
2022/08/06 07:53:31;;;;;;;0.30;0.30;;;21.70;1.00;;;;;;5046524;28;20748;-76
2022/08/06 07:55:59;;;;;;;0.37;0.37;;;21.30;1.00;;;;;;5045233;28;20183;-75
2022/08/06 07:58:25;;;;;;;0.30;0.30;;;21.30;1.00;;;;;;5049299;28;20542;-76
2022/08/06 08:00:50;;;;;;;0.40;0.40;;;21.30;1.00;;;;;;5039854;28;20220;-76
2022/08/06 08:06:18;;;;;;;0.50;0.50;;;21.20;1.00;;;;;;5047762;28;20225;-74
2022/08/06 08:08:45;;;;;;;0.30;0.30;;;21.10;1.00;;;;;;5048264;28;20183;-75
2022/08/06 08:11:14;;;;;;;0.30;0.30;;;21.30;1.00;;;;;;5042370;28;20179;-75
2022/08/06 08:13:40;;;;;;;0.30;0.30;;;21.60;1.00;;;;;;5044698;28;20211;-77
2022/08/06 08:16:08;;;;;;;0.30;0.30;;;21.60;1.00;;;;;;5050206;28;20257;-76
2022/08/06 08:18:34;;;;;;;0.40;0.40;;;21.00;1.00;;;;;;5048448;28;20183;-76
2022/08/06 08:21:00;;;;;;;0.30;0.30;;;21.80;1.00;;;;;;5041404;28;20198;-76
2022/08/06 08:23:30;;;;;;;0.30;0.30;;;21.80;1.00;;;;;;5051374;28;20195;-77
2022/08/06 08:25:58;;;;;;;0.30;0.30;;;22.30;1.00;;;;;;5047381;28;20222;-76
2022/08/06 08:28:24;;;;;;;0.30;0.30;;;21.90;1.00;;;;;;5037263;28;20489;-76
2022/08/06 08:30:49;;;;;;;0.27;0.27;;;21.60;1.00;;;;;;5045414;28;20172;-76
2022/08/06 08:33:15;;;;;;;0.20;0.20;;;21.60;1.00;;;;;;5037066;28;20199;-76
2022/08/06 08:35:42;;;;;;;0.30;0.30;;;21.40;1.00;;;;;;5031957;28;20249;-76
2022/08/06 08:38:07;;;;;;;0.40;0.40;;;21.90;1.00;;;;;;5031614;28;20199;-76
2022/08/06 08:40:34;;;;;;;0.40;0.40;;;22.70;1.00;;;;;;5031459;28;20534;-76
2022/08/06 08:43:01;;;;;;;0.50;0.50;;;22.90;1.00;;;;;;5046403;28;20200;-76
2022/08/06 08:45:28;;;;;;;0.40;0.40;;;23.30;1.00;;;;;;5032092;28;20207;-76
2022/08/06 08:47:57;;;;;;;0.30;0.30;;;23.80;1.00;;;;;;5036421;28;20174;-74
2022/08/06 08:50:27;;;;;;;0.40;0.40;;;24.60;1.00;;;;;;5050646;28;20644;-75
2022/08/06 08:53:05;;;;;;;0.57;0.57;;;24.70;1.00;;;;;;5046455;28;20642;-74
2022/08/06 08:55:31;;;;;;;0.40;0.40;;;24.50;1.00;;;;;;5040803;28;20185;-74
2022/08/06 08:57:57;;;;;;;0.30;0.30;;;23.60;1.00;;;;;;5051260;28;20183;-74
2022/08/06 09:00:23;;;;;;;0.50;0.50;;;23.00;1.00;;;;;;5045906;28;20194;-75
2022/08/06 09:02:50;;;;;;;0.30;0.30;;;23.40;1.00;;;;;;5046299;28;20195;-75
2022/08/06 09:05:16;;;;;;;0.40;0.40;;;23.30;1.00;;;;;;5032377;28;20199;-76
2022/08/06 09:07:43;;;;;;;0.40;0.40;;;23.90;1.00;;;;;;5042640;28;20178;-75
2022/08/06 09:10:10;;;;;;;0.40;0.40;;;24.70;1.00;;;;;;5047209;28;20183;-74
2022/08/06 09:12:37;;;;;;;0.40;0.40;;;25.20;1.00;;;;;;5069215;28;20200;-75
2022/08/06 09:15:03;;;;;;;0.40;0.40;;;25.20;1.00;;;;;;5071571;28;20195;-75
2022/08/06 09:17:29;;;;;;;0.37;0.37;;;24.20;1.00;;;;;;5054425;28;20333;-75
2022/08/06 09:19:55;;;;;;;0.50;0.50;;;23.60;1.00;;;;;;5065460;28;20187;-74
2022/08/06 09:22:20;;;;;;;0.37;0.37;;;23.30;1.00;;;;;;5074024;28;20208;-73
2022/08/06 09:24:46;;;;;;;0.40;0.40;;;23.30;1.00;;;;;;5055422;28;20172;-74
2022/08/06 09:27:15;;;;;;;0.40;0.40;;;22.90;1.00;;;;;;5073636;28;20207;-74
2022/08/06 09:29:53;;;;;;;0.40;0.40;;;22.80;1.00;;;;;;5060668;28;20760;-75
2022/08/06 09:32:42;;;;;;;0.30;0.30;;;22.80;1.00;;;;;;5047672;28;20507;-75
2022/08/06 09:35:22;;;;;;;0.30;0.30;;;22.50;1.00;;;;;;5031500;28;20211;-75
2022/08/06 09:37:49;;;;;;;0.30;0.30;;;22.30;1.00;;;;;;5042433;28;20244;-76
2022/08/06 09:40:19;;;;;;;0.40;0.40;;;22.30;1.00;;;;;;5035432;28;20207;-75
2022/08/06 09:42:48;;;;;;;0.40;0.40;;;22.40;1.00;;;;;;5035727;28;20531;-75
2022/08/06 09:45:15;;;;;;;0.40;0.40;;;22.50;1.00;;;;;;5042366;28;20231;-76
2022/08/06 09:47:41;;;;;;;0.30;0.30;;;22.60;1.00;;;;;;5033438;28;20259;-75
2022/08/06 09:50:08;;;;;;;0.33;0.33;;;22.50;1.00;;;;;;5035579;28;20656;-76
2022/08/06 09:52:34;;;;;;;0.30;0.30;;;22.50;1.00;;;;;;5046755;28;20290;-75
2022/08/06 09:55:00;;;;;;;0.30;0.30;;;22.80;1.00;;;;;;5038969;28;20270;-75
2022/08/06 09:57:41;;;;;;;0.30;0.30;;;23.10;1.00;;;;;;5049586;28;20187;-76
2022/08/06 10:00:08;;;;;;;0.30;0.30;;;23.30;1.00;;;;;;5037646;28;20263;-76
2022/08/06 10:02:34;;;;;;;0.50;0.50;;;22.90;1.00;;;;;;5039535;28;20207;-75
2022/08/06 10:05:11;;;;;;;0.30;0.30;;;22.70;1.00;;;;;;5049651;28;20692;-76
2022/08/06 10:07:36;;;;;;;0.30;0.30;;;22.50;1.00;;;;;;5048750;28;20182;-75
2022/08/06 10:10:03;;;;;;;0.40;0.40;;;22.50;1.00;;;;;;5034024;28;20171;-74
2022/08/06 10:12:29;;;;;;;0.30;0.30;;;22.20;1.00;;;;;;5038980;28;20672;-75
2022/08/06 10:14:55;;;;;;;0.30;0.30;;;21.90;1.00;;;;;;5049993;28;20266;-75
2022/08/06 10:17:22;;;;;;;0.30;0.30;;;21.80;1.00;;;;;;5048976;28;20555;-75
2022/08/06 10:20:06;;;;;;;0.30;0.30;;;21.90;1.00;;;;;;5034693;28;20191;-75
2022/08/06 10:22:31;;;;;;;0.40;0.40;;;22.30;1.00;;;;;;5038663;28;20345;-75
2022/08/06 10:25:01;;;;;;;0.30;0.30;;;22.30;1.00;;;;;;5034127;28;20283;-75
2022/08/06 10:27:31;;;;;;;0.40;0.40;;;22.30;1.00;;;;;;5034112;28;20237;-75
2022/08/06 10:30:07;;;;;;;0.30;0.30;;;24.00;1.00;;;;;;5037726;28;20183;-75
2022/08/06 10:33:04;;;;;;;0.30;0.30;;;26.10;1.00;;;;;;5053218;28;20321;-76
2022/08/06 10:35:31;;;;;;;0.30;0.30;;;27.20;1.00;;;;;;5053356;28;20183;-75
2022/08/06 10:38:00;;;;;;;0.30;0.30;;;26.30;1.00;;;;;;5037200;28;20218;-76
2022/08/06 10:40:27;;;;;;;0.50;0.50;;;24.60;1.00;;;;;;5045655;28;20199;-76
2022/08/06 10:42:53;;;;;;;0.30;0.30;;;23.70;1.00;;;;;;5044367;28;20203;-76
2022/08/06 10:45:18;;;;;;;0.30;0.30;;;23.50;1.00;;;;;;5047734;28;20568;-75
2022/08/06 10:47:46;;;;;;;0.40;0.40;;;23.10;1.00;;;;;;5051545;28;20183;-75
2022/08/06 10:50:13;;;;;;;0.30;0.30;;;23.10;1.00;;;;;;5033011;28;20234;-75
2022/08/06 10:52:40;;;;;;;0.40;0.40;;;22.90;1.00;;;;;;5033524;28;20203;-75
2022/08/06 10:55:07;;;;;;;0.40;0.40;;;22.70;1.00;;;;;;5051742;28;20500;-74
2022/08/06 10:57:33;;;;;;;0.30;0.30;;;22.60;1.00;;;;;;5037262;28;20191;-75
2022/08/06 11:00:00;;;;;;;0.40;0.40;;;22.80;1.00;;;;;;5032756;28;20180;-75
2022/08/06 11:02:44;;;;;;;0.40;0.40;;;23.00;1.00;;;;;;5033443;28;20195;-75
2022/08/06 11:05:17;;;;;;;0.40;0.40;;;23.40;1.00;;;;;;5033759;28;20191;-75
2022/08/06 11:08:21;;;;;;;0.47;0.47;;;23.70;1.00;;;;;;5048963;28;20183;-75
2022/08/06 11:11:11;;;;;;;0.50;0.50;;;24.00;1.00;;;;;;5030689;28;20218;-75
2022/08/06 11:13:48;;;;;;;0.40;0.40;;;24.40;1.00;;;;;;5049648;28;20195;-75
2022/08/06 11:16:25;;;;;;;0.30;0.30;;;24.80;1.00;;;;;;5044361;28;20183;-75
2022/08/06 11:19:11;;;;;;;0.30;0.30;;;25.30;1.00;;;;;;5033052;28;20184;-76
2022/08/06 11:21:42;;;;;;;0.30;0.30;;;25.50;1.00;;;;;;5044666;28;20271;-76
2022/08/06 11:24:09;;;;;;;0.30;0.30;;;25.20;1.00;;;;;;5032772;28;20530;-74
2022/08/06 11:26:40;;;;;;;0.33;0.33;;;25.60;1.00;;;;;;5043412;28;20305;-76
2022/08/06 11:29:07;;;;;;;0.40;0.40;;;25.70;1.00;;;;;;5051311;28;20175;-76
2022/08/06 11:31:33;;;;;;;0.30;0.30;;;25.60;1.00;;;;;;5052149;28;20179;-75
2022/08/06 11:34:04;;;;;;;0.30;0.30;;;25.30;1.00;;;;;;5047514;28;20592;-75
2022/08/06 11:36:45;;;;;;;0.30;0.30;;;25.20;1.00;;;;;;5042148;28;20188;-75
2022/08/06 11:39:11;;;;;;;0.50;0.50;;;25.10;1.00;;;;;;5044279;28;20192;-75
2022/08/06 11:41:48;;;;;;;0.40;0.40;;;25.10;1.00;;;;;;5034642;28;20237;-76
2022/08/06 11:44:17;;;;;;;0.30;0.30;;;26.40;1.00;;;;;;5047535;28;20257;-75
2022/08/06 11:46:45;;;;;;;0.20;0.20;;;26.60;1.00;;;;;;5045101;28;20219;-76
2022/08/06 11:49:18;;;;;;;0.50;0.50;;;26.10;1.00;;;;;;5049646;28;20244;-76
2022/08/06 11:51:59;;;;;;;0.40;0.40;;;25.70;1.00;;;;;;5034381;28;20195;-75
2022/08/06 11:54:26;;;;;;;0.30;0.30;;;25.90;1.00;;;;;;5051301;28;20183;-76
2022/08/06 11:57:01;;;;;;;0.40;0.40;;;26.90;1.00;;;;;;5035045;28;20649;-76
2022/08/06 11:59:28;;;;;;;0.40;0.40;;;26.80;1.00;;;;;;5042994;28;20182;-76
2022/08/06 12:01:54;;;;;;;0.30;0.30;;;27.20;1.00;;;;;;5050980;28;20258;-76
2022/08/06 12:04:56;;;;;;;0.40;0.40;;;27.70;1.00;;;;;;5040172;28;20229;-75
2022/08/06 12:07:34;;;;;;;0.30;0.30;;;27.80;1.00;;;;;;5035300;28;20261;-76
2022/08/06 12:10:05;;;;;;;0.33;0.33;;;26.40;1.00;;;;;;5040325;28;20198;-76
2022/08/06 12:12:36;;;;;;;0.30;0.30;;;25.40;1.00;;;;;;5046597;28;20714;-75
2022/08/06 12:15:24;;;;;;;0.50;0.50;;;25.40;1.00;;;;;;5046345;28;20188;-75
2022/08/06 12:17:59;;;;;;;0.40;0.40;;;25.90;1.00;;;;;;5037235;28;20223;-75
2022/08/06 12:20:31;;;;;;;0.30;0.30;;;27.20;1.00;;;;;;5044148;28;20269;-75
2022/08/06 12:23:04;;;;;;;0.40;0.40;;;26.90;1.00;;;;;;5053846;28;20252;-74
2022/08/06 12:25:32;;;;;;;0.40;0.40;;;25.90;1.00;;;;;;5050925;28;20214;-75
2022/08/06 12:27:57;;;;;;;0.53;0.53;;;25.70;1.00;;;;;;5044081;28;20317;-75
2022/08/06 12:30:23;;;;;;;0.50;0.50;;;26.70;1.00;;;;;;5051040;28;20728;-75
2022/08/06 12:32:48;;;;;;;0.50;0.50;;;26.80;1.00;;;;;;5034565;28;20230;-75
2022/08/06 12:35:14;;;;;;;0.43;0.43;;;26.90;1.00;;;;;;5035045;28;20173;-75
2022/08/06 12:37:44;;;;;;;0.40;0.40;;;26.40;1.00;;;;;;5031141;28;20286;-75
2022/08/06 12:40:29;;;;;;;0.47;0.47;;;26.10;1.00;;;;;;5041205;28;20269;-75
2022/08/06 12:43:09;;;;;;;0.30;0.30;;;26.10;1.00;;;;;;5046423;28;20199;-75
2022/08/06 12:45:37;;;;;;;0.40;0.40;;;26.00;1.00;;;;;;5041071;28;20306;-75
2022/08/06 12:48:08;;;;;;;0.40;0.40;;;25.80;1.00;;;;;;5044910;28;20278;-75
2022/08/06 12:50:36;;;;;;;0.43;0.43;;;26.40;1.00;;;;;;5032947;28;20180;-75
2022/08/06 12:53:08;;;;;;;0.30;0.30;;;26.90;1.00;;;;;;5034920;28;20252;-75
2022/08/06 12:55:48;;;;;;;0.43;0.43;;;27.40;1.00;;;;;;5040768;28;20183;-76
2022/08/06 12:58:16;;;;;;;0.40;0.40;;;28.20;1.00;;;;;;5045996;28;20625;-76
2022/08/06 13:00:45;;;;;;;0.30;0.30;;;28.10;1.00;;;;;;5049675;28;20270;-76
2022/08/06 13:03:12;;;;;;;0.50;0.50;;;28.40;1.00;;;;;;5050059;28;20194;-76
2022/08/06 13:05:38;;;;;;;0.60;0.60;;;28.60;1.00;;;;;;5035873;28;20215;-75
2022/08/06 13:08:04;;;;;;;0.40;0.40;;;28.70;1.00;;;;;;5031336;28;20176;-76
2022/08/06 13:10:30;;;;;;;0.30;0.30;;;28.80;1.00;;;;;;5032137;28;20188;-76
2022/08/06 13:13:01;;;;;;;0.50;0.50;;;28.00;1.00;;;;;;5033842;28;20617;-75
2022/08/06 13:15:28;;;;;;;0.50;0.50;;;27.70;1.00;;;;;;5038008;28;20222;-75